Time;durP1;ratioP1;P1;durP2;ratioP2;P2;SDS_P1;SDS_P2;PMS_P1;PMS_P2;Temp;Humidity;BMP_temperature;BMP_pressure;BME280_temperature;BME280_humidity;BME280_pressure;Samples;Min_cycle;Max_cycle;Signal;HPM_P1;HPM_P2
2022/01/24 00:00:50;;;;;;;4.57;2.38;;;5.50;99.90;;;5.25;81.37;102885.03;5187633;28;20050;-71
2022/01/24 00:03:22;;;;;;;5.53;2.88;;;5.50;99.90;;;5.26;81.56;102885.16;5187476;28;20048;-73
2022/01/24 00:05:55;;;;;;;5.03;2.90;;;5.50;99.90;;;5.23;81.33;102876.25;5187046;28;20056;-71
2022/01/24 00:08:29;;;;;;;7.03;3.00;;;5.50;99.90;;;5.27;81.58;102879.22;5186885;28;20056;-73
2022/01/24 00:11:06;;;;;;;6.70;2.90;;;5.50;99.90;;;5.30;81.38;102876.94;5187559;28;20053;-71
2022/01/24 00:16:34;;;;;;;4.72;2.50;;;5.60;99.90;;;5.35;81.23;102870.50;5187140;28;20061;-73
2022/01/24 00:27:36;;;;;;;6.28;2.75;;;5.60;99.90;;;5.48;81.53;102863.78;5187670;28;20434;-73
2022/01/24 00:30:10;;;;;;;6.50;3.05;;;5.60;99.90;;;5.46;80.99;102874.00;5187784;28;20049;-73
2022/01/24 00:32:42;;;;;;;7.68;3.75;;;5.60;99.90;;;5.48;81.23;102871.53;5187529;28;20398;-73
2022/01/24 00:35:14;;;;;;;9.40;2.88;;;5.60;99.90;;;5.47;81.12;102868.06;5186685;28;20065;-72
2022/01/24 00:37:48;;;;;;;4.97;2.70;;;5.60;99.90;;;5.48;81.29;102871.53;5186315;28;20141;-75
2022/01/24 00:40:20;;;;;;;4.72;2.58;;;5.70;99.90;;;5.45;81.30;102873.09;5186669;28;20046;-70
2022/01/24 00:42:56;;;;;;;5.60;3.08;;;5.70;99.90;;;5.48;81.22;102872.47;5186561;28;20081;-74
2022/01/24 00:45:35;;;;;;;4.90;2.55;;;5.70;99.90;;;5.50;81.71;102865.75;5186742;28;20129;-75
2022/01/24 00:48:26;;;;;;;4.68;2.92;;;5.70;99.90;;;5.47;80.76;102875.81;5186657;28;20136;-73
2022/01/24 00:54:03;;;;;;;6.95;3.03;;;5.70;99.90;;;5.48;81.57;102877.66;5186359;28;20053;-73
2022/01/24 00:56:35;;;;;;;6.13;2.63;;;5.70;99.90;;;5.46;81.07;102863.66;5186250;28;20430;-71
2022/01/24 00:59:07;;;;;;;5.32;2.60;;;5.70;99.90;;;5.45;81.44;102864.44;5186390;28;20509;-73
2022/01/24 01:01:39;;;;;;;4.45;2.47;;;5.70;99.90;;;5.47;81.16;102872.31;5185903;28;20049;-70
2022/01/24 01:04:11;;;;;;;4.47;2.63;;;5.70;99.90;;;5.49;80.95;102866.53;5186406;28;20054;-74
2022/01/24 01:06:45;;;;;;;6.05;2.60;;;5.70;99.90;;;5.50;81.30;102865.75;5186277;28;20124;-72
2022/01/24 01:20:53;;;;;;;5.25;2.30;;;5.80;99.90;;;5.64;80.50;102860.09;5185657;28;20054;-71
2022/01/24 01:23:25;;;;;;;3.60;2.40;;;5.80;99.90;;;5.62;80.95;102860.75;5185976;28;20042;-75
2022/01/24 01:26:04;;;;;;;5.78;2.08;;;5.80;99.90;;;5.63;81.01;102859.97;5185824;28;20054;-74
2022/01/24 01:28:38;;;;;;;4.07;2.30;;;5.80;99.90;;;5.61;80.63;102867.63;5185419;28;20096;-75
2022/01/24 01:31:12;;;;;;;2.33;1.83;;;5.80;99.90;;;5.59;80.68;102856.19;5185718;28;20052;-74
2022/01/24 01:33:56;;;;;;;3.53;1.80;;;5.80;99.90;;;5.64;80.64;102859.19;5186005;28;20498;-71
2022/01/24 01:36:46;;;;;;;3.25;2.17;;;5.80;99.90;;;5.59;80.62;102863.97;5185157;28;20136;-72
2022/01/24 01:53:48;;;;;;;3.33;1.75;;;5.80;99.90;;;5.60;80.25;102855.41;5185321;28;20100;-73
2022/01/24 01:56:20;;;;;;;2.88;1.80;;;5.80;99.90;;;5.61;80.05;102857.25;5185447;28;20072;-71
2022/01/24 01:58:53;;;;;;;4.03;1.73;;;5.80;99.90;;;5.63;80.57;102850.53;5185467;28;20403;-71
2022/01/24 02:01:25;;;;;;;3.35;1.73;;;5.80;99.90;;;5.67;80.07;102852.63;5184850;28;20050;-73
2022/01/24 02:03:58;;;;;;;2.83;1.70;;;5.80;99.90;;;5.61;79.37;102849.50;5185109;28;20053;-72
2022/01/24 02:06:31;;;;;;;3.22;1.60;;;5.80;99.90;;;5.58;79.68;102846.63;5184690;28;20085;-70
2022/01/24 02:09:06;;;;;;;3.00;1.55;;;5.80;99.90;;;5.59;80.27;102840.66;5185067;28;20396;-73
2022/01/24 02:11:38;;;;;;;;;;;5.80;99.90;;;5.61;79.94;102849.50;5185717;28;20056;-70
2022/01/24 02:14:17;;;;;;;1.90;1.65;;;5.80;99.90;;;5.61;80.16;102854.69;5184956;28;19928;-72
2022/01/24 02:16:53;;;;;;;3.05;1.80;;;5.80;99.90;;;5.60;80.15;102849.34;5185127;28;20104;-73
2022/01/24 02:19:33;;;;;;;2.05;1.30;;;5.80;99.90;;;5.60;79.71;102841.56;5185116;28;20050;-72
2022/01/24 02:22:38;;;;;;;3.20;1.80;;;5.80;99.90;;;5.63;80.17;102840.19;5184819;28;20045;-72
2022/01/24 02:25:06;;;;;;;1.80;1.60;;;5.80;99.90;;;5.68;79.71;102841.50;5184558;28;20045;-73
2022/01/24 02:27:44;;;;;;;1.77;1.20;;;5.80;99.90;;;5.59;79.37;102848.44;5185276;28;20054;-71
2022/01/24 02:30:37;;;;;;;3.45;1.77;;;5.80;99.90;;;5.59;79.38;102838.09;5184397;28;20057;-73
2022/01/24 02:33:10;;;;;;;2.30;1.23;;;5.80;99.90;;;5.66;79.51;102834.34;5184613;28;20072;-71
2022/01/24 02:35:42;;;;;;;2.72;1.40;;;5.80;99.90;;;5.57;79.92;102826.72;5184624;28;20054;-71
2022/01/24 02:38:26;;;;;;;3.20;1.48;;;5.80;99.90;;;5.53;79.61;102828.88;5184852;28;20410;-72
2022/01/24 02:49:51;;;;;;;2.83;1.50;;;5.80;99.90;;;5.48;80.11;102807.81;5161927;28;20062;-72
2022/01/24 02:52:26;;;;;;;3.10;1.45;;;5.80;99.90;;;5.51;80.54;102801.97;5161779;28;20504;-74
2022/01/24 02:54:59;;;;;;;3.92;1.55;;;5.80;99.90;;;5.46;80.65;102798.97;5177886;28;20463;-72
2022/01/24 02:57:31;;;;;;;2.75;1.40;;;5.80;99.90;;;5.50;80.77;102800.16;5188602;28;20050;-72
2022/01/24 03:00:04;;;;;;;3.38;1.60;;;5.80;99.90;;;5.54;80.53;102794.47;5188931;28;20479;-73
2022/01/24 03:02:36;;;;;;;3.00;1.70;;;5.80;99.90;;;5.42;80.78;102794.34;5188421;28;20060;-72
2022/01/24 03:05:08;;;;;;;3.80;1.60;;;5.80;99.90;;;5.37;80.57;102793.03;5188413;28;20050;-73
2022/01/24 03:07:41;;;;;;;3.88;1.25;;;5.70;99.90;;;5.33;80.73;102784.06;5188208;28;20132;-73
2022/01/24 03:10:24;;;;;;;2.15;1.50;;;5.70;99.90;;;5.35;81.05;102786.81;5188330;28;20054;-74
2022/01/24 03:13:10;;;;;;;4.05;1.85;;;5.70;99.90;;;5.34;81.17;102779.81;5188404;28;20411;-71
2022/01/24 03:15:42;;;;;;;3.33;1.77;;;5.60;99.90;;;5.29;80.53;102781.09;5188587;28;20498;-73
2022/01/24 03:18:15;;;;;;;2.35;1.52;;;5.60;99.90;;;5.36;80.98;102778.28;5188093;28;20050;-74
2022/01/24 03:20:48;;;;;;;3.70;2.08;;;5.60;99.90;;;5.37;80.78;102770.66;5188606;28;20502;-72
2022/01/24 03:23:22;;;;;;;2.67;1.75;;;5.70;99.90;;;5.37;80.77;102774.91;5188096;28;20046;-73
2022/01/24 03:25:56;;;;;;;3.42;1.98;;;5.60;99.90;;;5.37;81.08;102774.91;5187940;28;20054;-70
2022/01/24 03:28:28;;;;;;;3.92;1.88;;;5.60;99.90;;;5.38;80.59;102774.13;5187962;28;20060;-73
2022/01/24 03:31:00;;;;;;;2.20;1.70;;;5.60;99.90;;;5.38;80.71;102776.72;5188245;28;20071;-74
2022/01/24 03:33:32;;;;;;;2.28;1.70;;;5.60;99.90;;;5.39;81.10;102778.53;5188078;28;20072;-73
2022/01/24 03:36:04;;;;;;;3.35;1.80;;;5.60;99.90;;;5.40;81.04;102775.16;5188053;28;20050;-72
2022/01/24 03:38:36;;;;;;;3.55;1.80;;;5.60;99.90;;;5.37;81.06;102774.91;5187519;28;20049;-73
2022/01/24 03:41:10;;;;;;;2.90;1.48;;;5.60;99.90;;;5.39;80.90;102773.34;5187659;28;20050;-72
2022/01/24 03:43:42;;;;;;;2.00;1.48;;;5.60;99.90;;;5.38;80.78;102776.72;5187614;28;20058;-73
2022/01/24 03:46:26;;;;;;;4.32;1.75;;;5.60;99.90;;;5.31;81.23;102769.22;5187887;28;20087;-71
2022/01/24 03:49:09;;;;;;;1.50;1.30;;;5.60;99.90;;;5.33;81.59;102767.66;5187493;28;20053;-72
2022/01/24 03:51:41;;;;;;;2.85;1.80;;;5.60;99.90;;;5.32;80.97;102777.09;5187905;28;20050;-72
2022/01/24 03:54:12;;;;;;;2.25;1.58;;;5.60;99.90;;;5.24;81.45;102777.22;5187641;28;20054;-73
2022/01/24 03:56:46;;;;;;;5.15;1.98;;;5.60;99.90;;;5.26;81.60;102780.81;5187749;28;20054;-71
2022/01/24 03:59:18;;;;;;;3.22;1.77;;;5.60;99.90;;;5.29;81.66;102784.59;5187362;28;20049;-70
2022/01/24 04:01:50;;;;;;;4.22;1.73;;;5.60;99.90;;;5.28;81.72;102787.03;5187478;28;20522;-70
2022/01/24 04:04:22;;;;;;;2.47;1.52;;;5.60;99.90;;;5.31;81.76;102800.25;5187136;28;20115;-73
2022/01/24 04:06:54;;;;;;;3.38;2.20;;;5.60;99.90;;;5.38;81.66;102797.41;5187263;28;20053;-74
2022/01/24 04:09:26;;;;;;;4.63;1.77;;;5.60;99.90;;;5.37;81.64;102793.91;5187213;28;20082;-73
2022/01/24 04:12:00;;;;;;;4.15;2.58;;;5.60;99.90;;;5.33;81.61;102798.69;5187175;28;20140;-73
2022/01/24 04:14:38;;;;;;;3.47;1.92;;;5.60;99.90;;;5.37;81.68;102793.91;5187306;28;20757;-76
2022/01/24 04:17:23;;;;;;;9.65;4.07;;;5.60;99.90;;;5.43;81.44;102790.97;5187185;28;20096;-72
2022/01/24 04:22:49;;;;;;;7.28;3.58;;;5.60;99.90;;;5.36;81.94;102786.03;5146716;28;20058;-73
2022/01/24 04:25:23;;;;;;;8.85;3.75;;;5.70;99.90;;;5.38;81.97;102782.81;5187051;28;20046;-74
2022/01/24 04:27:57;;;;;;;13.18;4.93;;;5.70;99.90;;;5.35;81.75;102785.13;5187249;28;20487;-72
2022/01/24 04:30:29;;;;;;;4.15;3.03;;;5.70;99.90;;;5.33;81.40;102783.16;5186884;28;20426;-73
2022/01/24 04:33:01;;;;;;;5.03;2.20;;;5.60;99.90;;;5.32;81.76;102776.19;5186658;28;20479;-74
2022/01/24 04:35:33;;;;;;;3.03;2.03;;;5.60;99.90;;;5.32;81.69;102786.53;5186866;28;20046;-74
2022/01/24 04:38:05;;;;;;;2.55;1.60;;;5.60;99.90;;;5.29;81.95;102783.69;5186499;28;20534;-72
2022/01/24 04:40:37;;;;;;;1.95;1.50;;;5.60;99.90;;;5.22;82.40;102779.66;5186943;28;20050;-71
2022/01/24 04:43:28;;;;;;;2.88;1.80;;;5.60;99.90;;;5.21;82.40;102783.00;5186765;28;20052;-72
2022/01/24 04:46:09;;;;;;;3.35;1.60;;;5.50;99.90;;;5.21;82.39;102792.44;5186664;28;20658;-74
2022/01/24 04:51:40;;;;;;;1.70;1.42;;;5.50;99.90;;;5.24;82.53;102787.56;5186438;28;20065;-71
2022/01/24 04:57:09;;;;;;;2.55;1.52;;;5.50;99.90;;;5.17;82.03;102787.00;5186294;28;20041;-73
2022/01/24 04:59:47;;;;;;;2.42;1.40;;;5.40;99.90;;;5.14;82.05;102789.31;5186498;28;20045;-71
2022/01/24 05:02:23;;;;;;;2.50;1.52;;;5.40;99.90;;;5.10;82.10;102788.94;5186044;28;20057;-70
2022/01/24 05:04:56;;;;;;;1.55;1.45;;;5.40;99.90;;;5.04;82.61;102788.38;5186416;28;20427;-74
2022/01/24 05:07:28;;;;;;;2.97;1.77;;;5.30;99.90;;;4.99;82.34;102800.88;5186451;28;20160;-71
2022/01/24 05:10:07;;;;;;;3.65;2.03;;;5.20;99.90;;;4.94;82.81;102796.97;5186393;28;20050;-72
2022/01/24 05:21:37;;;;;;;3.35;1.70;;;5.10;99.90;;;4.79;83.71;102793.94;5185961;28;20148;-72
2022/01/24 05:24:08;;;;;;;2.95;1.67;;;5.10;99.90;;;4.77;83.73;102794.59;5185823;28;20521;-72
2022/01/24 05:26:40;;;;;;;1.70;1.60;;;5.00;99.90;;;4.71;84.12;102791.44;5185974;28;20124;-70
2022/01/24 05:29:13;;;;;;;5.22;2.00;;;5.00;99.90;;;4.67;84.37;102789.34;5185851;28;20487;-71
2022/01/24 05:31:47;;;;;;;4.22;1.58;;;4.90;99.90;;;4.66;84.36;102788.44;5185592;28;20057;-73
2022/01/24 05:34:19;;;;;;;3.58;1.60;;;5.00;99.90;;;4.63;84.64;102783.91;5185719;28;20042;-70
2022/01/24 05:36:51;;;;;;;4.50;1.48;;;4.90;99.90;;;4.62;84.63;102797.56;5208507;23;20044;-80
2022/01/24 05:39:23;;;;;;;2.58;1.45;;;4.90;99.90;;;4.57;84.57;102801.44;5194871;28;20046;-79
2022/01/24 05:41:55;;;;;;;4.03;1.67;;;4.80;99.90;;;4.54;84.37;102802.81;5190112;28;20489;-80
2022/01/24 05:44:27;;;;;;;4.25;1.63;;;4.80;99.90;;;4.49;84.75;102799.81;5188372;28;20109;-80
2022/01/24 05:47:00;;;;;;;2.75;1.83;;;4.70;99.90;;;4.45;84.34;102796.84;5190944;28;20515;-82
2022/01/24 05:49:32;;;;;;;1.98;1.80;;;4.70;99.90;;;4.40;84.56;102804.16;5191712;28;20416;-80
2022/01/24 05:52:09;;;;;;;2.70;1.80;;;4.70;99.90;;;4.34;84.68;102801.00;5192563;28;20050;-83
2022/01/24 05:54:42;;;;;;;3.10;1.60;;;4.60;99.90;;;4.31;84.76;102798.16;5193142;28;20109;-83
2022/01/24 05:57:14;;;;;;;2.10;1.80;;;4.60;99.90;;;4.27;84.99;102798.63;5192025;28;20056;-82
2022/01/24 05:59:47;;;;;;;3.13;2.03;;;4.50;99.90;;;4.23;85.08;102806.84;5192005;28;20137;-82
2022/01/24 06:02:20;;;;;;;2.25;1.85;;;4.40;99.90;;;4.18;85.31;102796.13;5192625;28;20046;-83
2022/01/24 06:04:52;;;;;;;3.70;2.00;;;4.40;99.90;;;4.14;85.45;102794.03;5192980;28;20432;-82
2022/01/24 06:07:24;;;;;;;3.38;2.22;;;4.40;99.90;;;4.04;85.17;102791.34;5195484;28;20413;-81
2022/01/24 06:09:56;;;;;;;2.13;1.70;;;4.30;99.90;;;3.97;85.21;102796.69;5196540;28;20521;-81
2022/01/24 06:12:28;;;;;;;2.10;1.52;;;4.30;99.90;;;3.97;85.48;102805.34;5196725;28;20420;-82
2022/01/24 06:15:01;;;;;;;3.10;2.00;;;4.20;99.90;;;3.91;85.66;102807.38;5191922;28;20078;-81
2022/01/24 06:17:34;;;;;;;2.50;1.63;;;4.10;99.90;;;3.79;85.90;102801.97;5191685;28;20054;-81
2022/01/24 06:20:09;;;;;;;3.15;1.70;;;4.10;99.90;;;3.81;86.38;102807.28;5192574;28;20054;-81
2022/01/24 06:22:41;;;;;;;4.07;1.58;;;4.10;99.90;;;3.79;86.71;102809.72;5191919;28;20116;-80
2022/01/24 06:25:20;;;;;;;3.35;1.88;;;4.00;99.90;;;3.79;86.90;102811.41;5192061;28;20042;-82
2022/01/24 06:27:53;;;;;;;3.95;1.92;;;4.00;99.90;;;3.75;87.04;102806.69;5195626;28;20054;-82
2022/01/24 06:30:25;;;;;;;2.67;1.85;;;4.00;99.90;;;3.74;87.18;102805.78;5198460;28;20049;-81
2022/01/24 06:32:59;;;;;;;2.42;1.52;;;3.90;99.90;;;3.72;87.13;102809.00;5198896;28;20110;-81
2022/01/24 06:35:31;;;;;;;3.97;1.50;;;3.90;99.90;;;3.58;86.84;102802.50;5198473;28;20105;-82
2022/01/24 06:38:03;;;;;;;4.78;1.70;;;3.90;99.90;;;3.61;86.99;102818.31;5199313;28;20053;-82
2022/01/24 06:40:36;;;;;;;4.22;1.75;;;3.80;99.90;;;3.52;87.24;102814.81;5199589;28;20058;-82
2022/01/24 06:43:08;;;;;;;4.10;1.73;;;3.80;99.90;;;3.51;87.02;102828.50;5199008;28;20052;-82
2022/01/24 06:45:40;;;;;;;3.20;1.75;;;3.70;99.90;;;3.46;87.34;102828.06;5200398;28;20136;-81
2022/01/24 06:48:13;;;;;;;3.72;1.73;;;3.70;99.90;;;3.38;87.70;102829.00;5199530;28;20058;-82
2022/01/24 06:50:45;;;;;;;3.60;1.60;;;3.60;99.90;;;3.36;87.71;102825.38;5199600;28;20076;-81
2022/01/24 06:53:17;;;;;;;4.05;1.92;;;3.60;99.90;;;3.32;87.55;102828.41;5199010;28;20046;-82
2022/01/24 06:55:49;;;;;;;4.15;1.70;;;3.60;99.90;;;3.26;87.74;102833.91;5199208;28;20125;-82
2022/01/24 06:58:22;;;;;;;2.35;1.73;;;3.50;99.90;;;3.16;87.86;102813.13;5199642;28;20046;-80
2022/01/24 07:00:54;;;;;;;2.03;1.40;;;3.50;99.90;;;3.17;87.78;102827.84;5199557;28;20094;-80
2022/01/24 07:03:28;;;;;;;2.33;1.58;;;3.40;99.90;;;3.14;88.40;102827.56;5199232;28;20058;-79
2022/01/24 07:06:00;;;;;;;2.63;1.67;;;3.40;99.90;;;3.08;88.45;102821.81;5201279;28;20046;-79
2022/01/24 07:08:32;;;;;;;3.75;1.95;;;3.40;99.90;;;3.01;88.39;102819.41;5199766;28;20058;-79
2022/01/24 07:11:04;;;;;;;3.08;1.55;;;3.30;99.90;;;3.07;88.29;102829.41;5200381;28;20054;-80
2022/01/24 07:13:36;;;;;;;3.03;1.90;;;3.30;99.90;;;2.98;88.27;102834.53;5198226;28;20060;-79
2022/01/24 07:16:08;;;;;;;4.25;1.60;;;3.20;99.90;;;2.95;88.29;102830.00;5196521;28;20063;-78
2022/01/24 07:19:02;;;;;;;3.50;1.98;;;3.20;99.90;;;2.90;88.65;102830.31;5196454;28;20106;-78
2022/01/24 07:21:34;;;;;;;4.35;1.80;;;3.10;99.90;;;2.85;88.55;102827.28;5195994;28;20547;-79
2022/01/24 07:24:06;;;;;;;4.03;1.90;;;3.10;99.90;;;2.79;89.03;102830.91;5195564;28;20042;-79
2022/01/24 07:26:38;;;;;;;2.40;2.13;;;3.10;99.90;;;2.78;88.84;102830.03;5196036;28;20141;-79
2022/01/24 07:29:10;;;;;;;5.13;2.35;;;3.10;99.90;;;2.80;88.68;102843.03;5195590;28;20411;-79
2022/01/24 07:31:43;;;;;;;2.92;1.77;;;3.00;99.90;;;2.79;88.87;102842.13;5197014;28;20056;-79
2022/01/24 07:34:16;;;;;;;2.65;1.90;;;3.00;99.90;;;2.72;89.06;102829.41;5196002;28;20042;-78
2022/01/24 07:36:49;;;;;;;3.17;1.50;;;3.00;99.90;;;2.74;89.26;102843.38;5199735;28;20118;-79
2022/01/24 07:39:21;;;;;;;2.50;1.70;;;3.00;99.90;;;2.79;89.32;102847.28;5201710;28;20050;-78
2022/01/24 07:41:53;;;;;;;3.05;1.67;;;3.00;99.90;;;2.76;89.43;102836.69;5194566;28;20046;-80
2022/01/24 07:44:25;;;;;;;2.70;1.85;;;3.00;99.90;;;2.81;89.45;102839.72;5193225;28;20046;-79
2022/01/24 07:46:57;;;;;;;2.50;1.55;;;3.00;99.90;;;2.85;89.70;102842.75;5195778;28;20056;-79
2022/01/24 07:49:31;;;;;;;4.38;1.85;;;3.00;99.90;;;2.89;90.09;102836.25;5202009;28;20064;-79
2022/01/24 07:52:04;;;;;;;2.78;1.70;;;3.10;99.90;;;2.94;90.62;102837.59;5197729;28;20054;-78
2022/01/24 07:54:37;;;;;;;3.60;1.42;;;3.10;99.90;;;3.03;90.64;102842.72;5191119;28;20058;-78
2022/01/24 07:57:09;;;;;;;4.05;1.80;;;3.20;99.90;;;3.06;90.52;102840.44;5192729;28;20057;-79
2022/01/24 07:59:41;;;;;;;2.70;1.70;;;3.30;99.90;;;3.08;90.09;102841.53;5195272;28;20057;-78
2022/01/24 08:02:13;;;;;;;3.60;2.00;;;3.30;99.90;;;3.17;90.55;102850.13;5195859;28;20042;-78
2022/01/24 08:04:46;;;;;;;6.13;2.40;;;3.30;99.90;;;3.22;90.75;102859.22;5193942;28;20052;-78
2022/01/24 08:07:18;;;;;;;4.35;2.10;;;3.40;99.90;;;3.28;90.82;102866.66;5196724;28;20058;-79
2022/01/24 08:09:50;;;;;;;7.25;3.13;;;3.40;99.90;;;3.34;91.28;102859.50;5192006;28;20046;-79
2022/01/24 08:12:22;;;;;;;2.78;1.95;;;3.50;99.90;;;3.42;90.87;102856.91;5194144;28;20057;-79
2022/01/24 08:14:54;;;;;;;6.15;2.72;;;3.60;99.90;;;3.48;91.16;102860.06;5194681;28;20042;-78
2022/01/24 08:17:26;;;;;;;3.95;2.30;;;3.60;99.90;;;3.48;91.34;102835.94;5193676;28;20057;-78
2022/01/24 08:20:00;;;;;;;4.68;2.17;;;3.70;99.90;;;3.59;91.20;102843.06;5193050;28;20054;-79
2022/01/24 08:22:32;;;;;;;2.97;2.10;;;3.80;99.90;;;3.74;91.11;102847.06;5194320;28;20113;-79
2022/01/24 08:25:05;;;;;;;4.10;2.13;;;3.90;99.90;;;3.74;91.05;102846.16;5195132;28;20136;-79
2022/01/24 08:27:38;;;;;;;3.15;1.85;;;3.90;99.90;;;3.75;90.94;102853.13;5196089;28;20050;-80
2022/01/24 08:30:14;;;;;;;4.13;2.10;;;3.90;99.90;;;3.73;91.12;102857.25;5196932;28;20046;-80
2022/01/24 08:32:47;;;;;;;3.60;2.17;;;3.90;99.90;;;3.76;90.65;102860.09;5196449;28;20133;-78
2022/01/24 08:35:22;;;;;;;4.93;2.40;;;4.00;99.90;;;3.72;91.23;102853.78;5196309;28;20042;-81
2022/01/24 08:37:54;;;;;;;4.45;2.08;;;4.00;99.90;;;3.77;90.78;102860.25;5197065;28;20102;-81
2022/01/24 08:40:28;;;;;;;4.20;2.25;;;4.00;99.90;;;3.79;90.67;102855.25;5198165;28;20064;-81
2022/01/24 08:43:02;;;;;;;7.03;2.40;;;4.00;99.90;;;3.83;90.99;102857.34;5198223;28;20056;-81
2022/01/24 08:45:50;;;;;;;4.28;2.20;;;4.00;99.90;;;3.88;91.07;102860.38;5196780;28;20196;-82
2022/01/24 08:48:23;;;;;;;5.55;2.60;;;4.00;99.90;;;3.94;90.94;102856.69;5195730;28;20132;-81
2022/01/24 08:50:58;;;;;;;7.00;3.05;;;4.10;99.90;;;3.93;91.37;102848.81;5193830;28;20056;-83
2022/01/24 08:53:33;;;;;;;6.43;3.22;;;4.10;99.90;;;4.09;91.30;102868.44;5194538;28;20073;-81
2022/01/24 08:56:07;;;;;;;6.00;2.85;;;4.20;99.90;;;4.20;91.73;102865.97;5197570;28;20054;-80
2022/01/24 08:58:39;;;;;;;5.68;3.15;;;4.40;99.90;;;4.35;91.51;102867.38;5193205;28;20050;-79
2022/01/24 09:01:11;;;;;;;7.80;3.03;;;4.50;99.90;;;4.50;91.36;102863.66;5193452;28;20042;-79
2022/01/24 09:03:43;;;;;;;6.35;3.00;;;4.50;99.90;;;4.66;90.99;102859.88;5193102;28;20056;-81
2022/01/24 09:06:18;;;;;;;10.05;4.38;;;4.70;99.90;;;4.80;90.66;102855.19;5193716;28;20050;-80
2022/01/24 09:08:55;;;;;;;8.02;3.13;;;4.80;99.90;;;4.97;90.73;102859.31;5194047;28;20057;-79
2022/01/24 09:11:32;;;;;;;7.43;3.45;;;4.90;99.90;;;5.14;90.00;102859.13;5192083;28;20121;-80
2022/01/24 09:14:07;;;;;;;9.38;3.95;;;5.10;99.90;;;5.27;89.42;102860.22;5190836;28;20417;-79
2022/01/24 09:16:40;;;;;;;5.85;2.92;;;5.20;99.90;;;5.34;89.41;102862.56;5195359;28;20512;-81
2022/01/24 09:19:12;;;;;;;7.32;3.53;;;5.30;99.90;;;5.36;88.72;102863.63;5196511;28;20042;-81
2022/01/24 09:21:45;;;;;;;6.30;3.30;;;5.40;99.90;;;5.32;88.85;102856.38;5195194;28;20046;-79
2022/01/24 09:24:18;;;;;;;5.53;2.72;;;5.40;99.90;;;5.34;87.94;102862.56;5194874;28;20500;-80
2022/01/24 09:26:50;;;;;;;4.10;2.67;;;5.40;99.90;;;5.34;88.21;102868.66;5194100;28;20527;-79
2022/01/24 09:29:22;;;;;;;5.57;2.33;;;5.40;99.90;;;5.33;88.25;102863.34;5192819;28;20530;-80
2022/01/24 09:31:55;;;;;;;4.40;2.58;;;5.40;99.90;;;5.32;87.68;102869.28;5192631;28;20052;-79
2022/01/24 09:34:27;;;;;;;4.45;2.30;;;5.50;99.90;;;5.34;87.54;102878.09;5192336;28;20423;-78
2022/01/24 09:37:02;;;;;;;2.88;2.20;;;5.50;99.90;;;5.38;87.84;102864.66;5191820;28;20064;-78
2022/01/24 09:39:34;;;;;;;6.38;2.40;;;5.50;99.90;;;5.45;87.20;102867.03;5191919;28;20416;-80
2022/01/24 09:42:07;;;;;;;4.35;2.30;;;5.50;99.90;;;5.50;87.22;102870.03;5192362;28;20077;-82
2022/01/24 09:44:39;;;;;;;4.82;2.33;;;5.60;99.90;;;5.51;87.38;102872.75;5191998;28;20046;-80
2022/01/24 09:47:17;;;;;;;4.78;2.42;;;5.60;99.90;;;5.58;87.20;102869.00;5191838;28;20506;-80
2022/01/24 09:49:51;;;;;;;5.93;2.67;;;5.70;99.90;;;5.53;86.94;102865.09;5187884;28;20050;-81
2022/01/24 09:52:24;;;;;;;5.13;2.85;;;5.60;99.90;;;5.48;86.10;102856.03;5172942;28;20054;-82
2022/01/24 09:54:56;;;;;;;8.02;3.15;;;5.70;99.90;;;5.55;86.49;102861.00;5170928;28;20046;-81
2022/01/24 09:57:30;;;;;;;7.75;3.88;;;5.70;99.90;;;5.63;86.14;102862.56;5171417;28;20054;-81
2022/01/24 10:00:02;;;;;;;12.32;4.00;;;5.70;99.90;;;5.69;86.03;102856.25;5173092;28;20515;-81
2022/01/24 10:02:34;;;;;;;7.78;3.33;;;5.80;99.90;;;5.73;85.78;102867.75;5173011;28;20058;-82
2022/01/24 10:05:15;;;;;;;5.15;3.13;;;5.80;99.90;;;6.85;100.00;102854.88;5168658;28;20052;-82
2022/01/24 10:07:54;;;;;;;4.13;2.33;;;6.60;99.90;;;7.35;98.49;102856.38;5171310;28;20054;-81
2022/01/24 10:10:33;;;;;;;7.30;3.70;;;7.30;99.90;;;7.59;89.70;102859.13;5179156;28;20556;-82
2022/01/24 10:16:31;;;;;;;4.93;2.92;;;7.80;99.90;;;7.10;81.24;102862.06;5169975;28;20136;-80
2022/01/24 10:19:07;;;;;;;;;;;7.50;99.90;;;6.78;80.58;102858.66;5170008;28;20101;-79
2022/01/24 10:21:42;;;;;;;3.92;2.22;;;7.30;99.90;;;6.70;81.02;102871.75;5167537;28;19933;-78
2022/01/24 10:24:37;;;;;;;4.22;2.60;;;7.10;99.90;;;6.51;80.74;102867.59;5165893;28;20046;-79
2022/01/24 10:27:13;;;;;;;3.88;2.08;;;6.90;99.90;;;6.50;81.34;102868.38;5166789;28;20050;-78
2022/01/24 10:29:52;;;;;;;5.07;2.20;;;6.90;99.90;;;6.38;79.99;102866.44;5169383;28;20088;-80
2022/01/24 10:32:35;;;;;;;4.22;2.55;;;6.80;99.90;;;6.35;80.36;102867.09;5170515;28;20046;-79
2022/01/24 10:35:31;;;;;;;18.08;2.95;;;6.70;99.90;;;6.74;86.44;102859.16;5169717;28;20512;-78
2022/01/24 10:38:25;;;;;;;3.65;2.13;;;6.90;99.90;;;7.16;83.07;102860.88;5171341;28;20177;-82
2022/01/24 10:41:17;;;;;;;3.28;2.20;;;7.40;99.90;;;6.87;78.12;102850.72;5169883;28;20085;-81
2022/01/24 10:43:52;;;;;;;3.67;2.00;;;7.30;99.90;;;6.68;78.88;102858.66;5137957;28;20054;-82
2022/01/24 10:46:27;;;;;;;3.10;2.40;;;7.10;99.90;;;6.46;78.77;102849.88;5173603;28;20440;-83
2022/01/24 10:49:04;;;;;;;5.57;1.95;;;6.90;99.90;;;6.31;79.26;102858.94;5170524;28;20057;-84
2022/01/24 10:51:44;;;;;;;2.88;2.00;;;6.80;99.90;;;6.08;80.18;102854.41;5170472;28;20083;-82
2022/01/24 10:54:20;;;;;;;4.03;1.90;;;6.60;99.90;;;5.93;80.59;102852.31;5172091;28;20061;-82
2022/01/24 10:56:54;;;;;;;2.28;1.75;;;6.40;99.90;;;5.75;81.49;102858.47;5171715;28;20096;-82
2022/01/24 10:59:26;;;;;;;4.75;2.15;;;6.20;99.90;;;5.69;81.53;102847.56;5172541;28;20513;-83
2022/01/24 11:02:01;;;;;;;5.10;2.67;;;6.10;99.90;;;5.66;81.59;102848.19;5171577;28;20050;-81
2022/01/24 11:04:34;;;;;;;5.30;2.42;;;6.10;99.90;;;5.66;82.05;102847.28;5171774;28;20042;-83
2022/01/24 11:07:06;;;;;;;4.18;2.15;;;6.00;99.90;;;5.75;82.23;102836.84;5171693;28;20050;-83
2022/01/24 11:09:41;;;;;;;3.42;2.33;;;6.00;99.90;;;5.92;81.71;102847.88;5172323;28;20057;-83
2022/01/24 11:12:16;;;;;;;3.50;2.30;;;6.10;99.90;;;5.96;80.88;102838.72;5171367;28;20078;-83
2022/01/24 11:14:50;;;;;;;3.90;2.25;;;6.10;99.90;;;5.87;81.15;102841.41;5173920;28;20082;-83
2022/01/24 11:17:29;;;;;;;3.08;2.20;;;6.10;99.90;;;5.82;81.50;102837.50;5175013;28;20064;-82
2022/01/24 11:20:03;;;;;;;3.83;2.30;;;6.00;99.90;;;5.86;82.01;102846.41;5174598;28;20467;-82
2022/01/24 11:22:40;;;;;;;4.85;2.30;;;6.00;99.90;;;5.85;81.53;102835.16;5175795;28;20134;-82
2022/01/24 11:25:15;;;;;;;5.07;1.77;;;6.00;99.90;;;5.83;81.73;102835.81;5191757;28;20066;-82
2022/01/24 11:27:49;;;;;;;3.90;2.60;;;6.00;99.90;;;5.94;81.42;102846.38;5185036;28;20046;-82
2022/01/24 11:30:25;;;;;;;3.70;2.30;;;6.10;99.90;;;5.98;81.46;102837.16;5185170;28;20057;-81
2022/01/24 11:33:01;;;;;;;2.78;2.05;;;6.10;99.90;;;6.02;81.07;102831.47;5182811;28;20049;-82
2022/01/24 11:35:39;;;;;;;3.90;2.75;;;6.10;99.90;;;5.91;81.03;102830.56;5184474;28;20077;-82
2022/01/24 11:38:27;;;;;;;4.63;2.55;;;6.10;99.90;;;5.81;81.04;102827.03;5334616;23;20413;-69
2022/01/24 11:41:03;;;;;;;3.50;2.20;;;6.00;99.90;;;5.77;81.80;102819.75;5175593;28;20133;-69
2022/01/24 11:43:39;;;;;;;3.30;2.05;;;6.00;99.90;;;5.75;82.14;102816.16;5167386;28;20082;-68
2022/01/24 11:46:34;;;;;;;3.85;2.53;;;6.00;99.90;;;5.77;82.41;102814.59;5166857;28;20057;-69
2022/01/24 11:49:10;;;;;;;3.30;2.40;;;6.00;99.90;;;5.79;82.77;102818.19;5167513;28;20046;-68
2022/01/24 11:51:45;;;;;;;3.67;2.47;;;6.00;99.90;;;5.83;82.83;102815.13;5167476;28;20054;-68
2022/01/24 11:54:33;;;;;;;3.17;2.47;;;6.10;99.90;;;5.88;82.55;102821.59;5166316;28;20054;-69
2022/01/24 11:57:25;;;;;;;3.60;2.50;;;6.10;99.90;;;5.89;82.05;102815.63;5166892;28;20050;-70
2022/01/24 12:00:22;;;;;;;5.47;2.72;;;6.10;99.90;;;5.82;81.96;102809.03;5166932;28;20133;-69
2022/01/24 12:02:57;;;;;;;4.88;2.30;;;6.10;99.90;;;5.80;82.18;102794.13;5167010;28;20411;-69
2022/01/24 12:05:41;;;;;;;3.33;2.55;;;6.10;99.90;;;5.77;82.16;102796.47;5166212;28;20097;-69
2022/01/24 12:08:28;;;;;;;10.82;3.65;;;6.10;99.90;;;5.77;82.34;102799.06;5166544;28;20379;-68